Time;durP1;ratioP1;P1;durP2;ratioP2;P2;SDS_P1;SDS_P2;PMS_P1;PMS_P2;Temp;Humidity;BMP_temperature;BMP_pressure;BME280_temperature;BME280_humidity;BME280_pressure;Samples;Min_cycle;Max_cycle;Signal;HPM_P1;HPM_P2
2022/07/14 00:01:03;;;;;;;6.20;5.13;;;21.30;99.90;;;;;;5016051;28;20184;-77
2022/07/14 00:03:29;;;;;;;5.30;4.53;;;21.30;99.90;;;;;;5016321;28;20271;-78
2022/07/14 00:05:54;;;;;;;6.00;4.30;;;21.30;99.90;;;;;;5016171;28;20287;-77
2022/07/14 00:08:20;;;;;;;7.93;4.40;;;21.30;99.90;;;;;;5015622;28;20997;-78
2022/07/14 00:10:46;;;;;;;6.10;4.27;;;21.30;99.90;;;;;;5017167;28;20177;-78
2022/07/14 00:13:12;;;;;;;6.33;4.63;;;21.30;99.90;;;;;;5020102;28;20208;-78
2022/07/14 00:15:38;;;;;;;7.07;4.73;;;21.30;99.90;;;;;;5018306;28;20419;-77
2022/07/14 00:18:04;;;;;;;11.60;4.40;;;21.30;99.90;;;;;;5020547;28;20216;-77
2022/07/14 00:20:30;;;;;;;6.27;4.47;;;21.30;99.90;;;;;;5020360;28;20415;-76
2022/07/14 00:22:56;;;;;;;6.70;4.67;;;21.30;99.90;;;;;;5020316;28;20555;-77
2022/07/14 00:25:25;;;;;;;7.53;4.50;;;21.20;99.90;;;;;;5019935;28;21327;-76
2022/07/14 00:27:52;;;;;;;6.23;3.70;;;21.20;99.90;;;;;;5019439;28;20484;-77
2022/07/14 00:30:18;;;;;;;8.23;3.87;;;21.20;99.90;;;;;;5019911;28;20419;-77
2022/07/14 00:32:44;;;;;;;8.17;4.30;;;21.20;99.90;;;;;;5019444;28;20424;-77
2022/07/14 00:35:09;;;;;;;7.03;4.13;;;21.20;99.90;;;;;;5019719;28;20422;-76
2022/07/14 00:37:35;;;;;;;6.20;3.60;;;21.20;99.90;;;;;;5019776;28;20286;-77
2022/07/14 00:40:04;;;;;;;8.87;4.37;;;21.20;99.90;;;;;;5019401;28;20269;-78
2022/07/14 00:42:35;;;;;;;8.07;4.47;;;21.20;99.90;;;;;;5019819;28;20183;-78
2022/07/14 00:45:04;;;;;;;9.00;3.63;;;21.20;99.90;;;;;;5019567;28;20458;-78
2022/07/14 00:47:30;;;;;;;5.23;3.77;;;21.20;99.90;;;;;;5019349;28;21036;-77
2022/07/14 00:49:56;;;;;;;7.77;3.80;;;21.10;99.90;;;;;;5019170;28;20462;-77
2022/07/14 00:52:24;;;;;;;7.80;4.40;;;21.10;99.90;;;;;;5019721;28;20208;-77
2022/07/14 00:54:51;;;;;;;9.23;4.20;;;21.10;99.90;;;;;;5019303;28;20869;-78
2022/07/14 00:57:17;;;;;;;6.50;4.33;;;21.10;99.90;;;;;;5019265;28;21028;-79
2022/07/14 00:59:43;;;;;;;9.20;4.40;;;21.10;99.90;;;;;;5019163;28;20423;-78
2022/07/14 01:02:09;;;;;;;7.37;4.60;;;21.10;99.90;;;;;;5018853;28;20502;-76
2022/07/14 01:04:34;;;;;;;6.67;4.43;;;21.10;99.90;;;;;;5019238;28;20184;-77
2022/07/14 01:07:00;;;;;;;6.77;4.77;;;21.00;99.90;;;;;;5018869;28;20433;-78
2022/07/14 01:09:26;;;;;;;10.00;4.70;;;21.00;99.90;;;;;;5018836;28;20187;-77
2022/07/14 01:11:52;;;;;;;8.50;4.37;;;21.00;99.90;;;;;;5018795;28;20548;-78
2022/07/14 01:14:17;;;;;;;7.33;4.77;;;21.00;99.90;;;;;;5019594;28;20579;-78
2022/07/14 01:16:43;;;;;;;10.67;4.43;;;21.00;99.90;;;;;;5017718;28;20547;-78
2022/07/14 01:19:09;;;;;;;14.17;5.20;;;21.00;99.90;;;;;;5018721;28;20303;-77
2022/07/14 01:21:35;;;;;;;16.33;4.63;;;20.90;99.90;;;;;;5020559;28;20595;-78
2022/07/14 01:24:01;;;;;;;7.37;4.37;;;20.90;99.90;;;;;;5015951;28;20246;-78
2022/07/14 01:26:26;;;;;;;13.63;4.30;;;20.90;99.90;;;;;;5016237;28;20208;-77
2022/07/14 01:28:52;;;;;;;8.27;5.30;;;20.90;99.90;;;;;;5016125;28;20973;-78
2022/07/14 01:31:18;;;;;;;10.53;4.37;;;20.90;99.90;;;;;;5016414;28;20721;-78
2022/07/14 01:33:44;;;;;;;8.93;4.43;;;20.90;99.90;;;;;;5016409;28;20756;-78
2022/07/14 01:36:09;;;;;;;6.43;4.40;;;20.80;99.90;;;;;;5016199;28;20187;-77
2022/07/14 01:38:35;;;;;;;12.40;4.30;;;20.80;99.90;;;;;;5016239;28;20198;-78
2022/07/14 01:41:01;;;;;;;5.90;3.63;;;20.80;99.90;;;;;;5016416;28;20181;-78
2022/07/14 01:43:27;;;;;;;9.03;4.50;;;20.80;99.90;;;;;;5016463;28;20227;-76
2022/07/14 01:45:52;;;;;;;14.93;5.00;;;20.80;99.90;;;;;;5016098;28;20719;-78
2022/07/14 01:48:18;;;;;;;9.30;4.70;;;20.70;99.90;;;;;;5016382;28;20200;-78
2022/07/14 01:50:44;;;;;;;9.80;4.60;;;20.70;99.90;;;;;;5016755;28;20544;-78
2022/07/14 01:53:09;;;;;;;8.77;4.73;;;20.60;99.90;;;;;;5016503;28;20671;-78
2022/07/14 01:55:35;;;;;;;9.93;4.10;;;20.50;99.90;;;;;;5016157;28;20184;-78
2022/07/14 01:58:01;;;;;;;8.63;3.90;;;20.50;99.90;;;;;;5016203;28;20202;-79
2022/07/14 02:00:27;;;;;;;11.20;6.03;;;20.50;99.90;;;;;;5016373;28;20229;-78
2022/07/14 02:02:52;;;;;;;9.67;4.90;;;20.50;99.90;;;;;;5016900;28;20187;-78
2022/07/14 02:05:18;;;;;;;12.17;4.87;;;20.40;99.90;;;;;;5016804;28;20255;-78
2022/07/14 02:07:44;;;;;;;9.63;5.00;;;20.30;99.90;;;;;;5034011;28;20264;-79
2022/07/14 02:12:54;;;;;;;9.93;4.40;;;20.30;99.90;;;;;;5034097;28;20813;-77
2022/07/14 02:15:20;;;;;;;8.80;4.23;;;20.40;99.90;;;;;;5015985;28;20505;-78
2022/07/14 02:17:46;;;;;;;8.47;4.30;;;20.40;99.90;;;;;;5015823;28;20354;-78
2022/07/14 02:20:12;;;;;;;12.13;4.20;;;20.40;99.90;;;;;;5032483;28;20431;-78
2022/07/14 02:22:38;;;;;;;18.20;5.90;;;20.40;99.90;;;;;;5016027;28;20422;-78
2022/07/14 02:25:04;;;;;;;7.80;4.00;;;20.30;99.90;;;;;;5015685;28;20173;-78
2022/07/14 02:27:30;;;;;;;9.63;4.40;;;20.30;99.90;;;;;;5015558;28;20197;-77
2022/07/14 02:29:56;;;;;;;13.80;4.40;;;20.30;99.90;;;;;;5015796;28;20427;-78
2022/07/14 02:32:21;;;;;;;10.53;3.70;;;20.30;99.90;;;;;;5015927;28;20275;-78
2022/07/14 02:34:47;;;;;;;11.37;4.60;;;20.40;99.90;;;;;;5015538;28;20243;-77
2022/07/14 02:37:14;;;;;;;12.53;5.20;;;20.40;99.90;;;;;;5015313;28;20219;-78
2022/07/14 02:39:40;;;;;;;6.37;4.07;;;20.40;99.90;;;;;;5016424;28;20202;-78
2022/07/14 02:42:05;;;;;;;8.27;4.23;;;20.40;99.90;;;;;;5017007;28;20424;-78
2022/07/14 02:44:31;;;;;;;8.47;4.50;;;20.40;99.90;;;;;;5016563;28;20212;-78
2022/07/14 02:46:57;;;;;;;11.13;4.70;;;20.40;99.90;;;;;;5015962;28;20184;-78
2022/07/14 02:49:22;;;;;;;14.80;5.10;;;20.40;99.90;;;;;;5016307;28;20230;-78
2022/07/14 02:51:48;;;;;;;10.80;4.20;;;20.30;99.90;;;;;;5015988;28;20187;-78
2022/07/14 02:54:14;;;;;;;8.23;3.90;;;20.30;99.90;;;;;;5016098;28;20261;-78
2022/07/14 02:56:40;;;;;;;9.90;4.60;;;20.20;99.90;;;;;;5016003;28;20172;-78
2022/07/14 02:59:07;;;;;;;10.90;4.90;;;20.20;99.90;;;;;;5016640;28;20203;-78
2022/07/14 03:01:33;;;;;;;11.70;4.70;;;20.10;99.90;;;;;;5016690;28;20647;-78
2022/07/14 03:03:59;;;;;;;9.60;4.57;;;20.10;99.90;;;;;;5016663;28;20427;-78
2022/07/14 03:06:25;;;;;;;9.73;4.73;;;20.00;99.90;;;;;;5015744;28;20792;-78
2022/07/14 03:08:50;;;;;;;7.93;4.00;;;20.00;99.90;;;;;;5015932;28;20450;-77
2022/07/14 03:11:19;;;;;;;10.90;4.87;;;20.00;99.90;;;;;;5016385;28;20181;-78
2022/07/14 03:13:46;;;;;;;5.83;3.90;;;19.90;99.90;;;;;;5015879;28;20204;-78
2022/07/14 03:16:12;;;;;;;10.50;5.13;;;19.90;99.90;;;;;;5016068;28;20944;-78
2022/07/14 03:18:41;;;;;;;9.30;4.30;;;19.90;99.90;;;;;;5015986;28;20524;-79
2022/07/14 03:21:11;;;;;;;9.27;4.10;;;19.90;99.90;;;;;;5016075;28;20857;-78
2022/07/14 03:23:37;;;;;;;11.70;4.80;;;19.80;99.90;;;;;;5016249;28;20457;-78
2022/07/14 03:26:03;;;;;;;10.80;4.53;;;19.80;99.90;;;;;;5015769;28;20450;-79
2022/07/14 03:28:29;;;;;;;9.73;4.40;;;19.80;99.90;;;;;;5016005;28;20442;-78
2022/07/14 03:30:56;;;;;;;8.83;4.40;;;19.90;99.90;;;;;;5016034;28;20473;-78
2022/07/14 03:33:23;;;;;;;6.50;3.70;;;19.90;99.90;;;;;;5032656;28;20216;-78
2022/07/14 03:35:50;;;;;;;9.87;5.13;;;19.90;99.90;;;;;;5015858;28;20470;-77
2022/07/14 03:38:16;;;;;;;6.07;4.00;;;19.90;99.90;;;;;;5015705;28;20443;-77
2022/07/14 03:40:45;;;;;;;10.43;5.07;;;19.90;99.90;;;;;;5015819;28;20429;-78
2022/07/14 03:43:11;;;;;;;10.70;4.40;;;19.90;99.90;;;;;;5015918;28;20427;-78
2022/07/14 03:45:38;;;;;;;9.60;4.97;;;19.80;99.90;;;;;;5015972;28;20997;-79
2022/07/14 03:48:07;;;;;;;15.87;6.67;;;19.80;99.90;;;;;;5019716;28;20204;-78
2022/07/14 03:50:34;;;;;;;14.60;4.50;;;19.80;99.90;;;;;;5019280;28;20430;-78
2022/07/14 03:52:59;;;;;;;9.80;4.80;;;19.80;99.90;;;;;;5020081;28;20517;-78
2022/07/14 03:55:25;;;;;;;7.13;3.57;;;19.70;99.90;;;;;;5019134;28;20415;-78
2022/07/14 03:57:51;;;;;;;12.77;4.00;;;19.70;99.90;;;;;;5019285;28;20291;-78
2022/07/14 04:00:17;;;;;;;12.77;4.13;;;19.70;99.90;;;;;;5019562;28;20190;-78
2022/07/14 04:02:42;;;;;;;12.17;4.47;;;19.70;99.90;;;;;;5019997;28;20348;-78
2022/07/14 04:05:08;;;;;;;9.70;4.30;;;19.80;99.90;;;;;;5020035;28;20180;-78
2022/07/14 04:07:34;;;;;;;8.83;4.53;;;19.70;99.90;;;;;;5019456;28;20207;-78
2022/07/14 04:10:00;;;;;;;9.83;3.97;;;19.60;99.90;;;;;;5021206;28;20182;-76
2022/07/14 04:12:26;;;;;;;13.90;4.67;;;19.60;99.90;;;;;;5018484;28;20177;-78
2022/07/14 04:14:52;;;;;;;10.60;4.90;;;19.60;99.90;;;;;;5018014;28;20710;-78
2022/07/14 04:17:18;;;;;;;7.53;4.30;;;19.60;99.90;;;;;;5017520;28;20541;-78
2022/07/14 04:19:43;;;;;;;11.90;4.60;;;19.60;99.90;;;;;;5032435;22;20307;-86
2022/07/14 04:22:09;;;;;;;11.67;4.97;;;19.60;99.90;;;;;;5021566;28;20238;-86
2022/07/14 04:24:36;;;;;;;8.47;4.70;;;19.60;99.90;;;;;;5021292;28;20184;-86
2022/07/14 04:27:01;;;;;;;11.37;3.87;;;19.60;99.90;;;;;;5020775;28;20184;-86
2022/07/14 04:29:27;;;;;;;11.20;4.90;;;19.60;99.90;;;;;;5020989;28;20883;-86
2022/07/14 04:31:52;;;;;;;13.47;4.90;;;19.60;99.90;;;;;;5038763;28;20173;-85
2022/07/14 04:34:18;;;;;;;9.10;5.10;;;19.60;99.90;;;;;;5020924;28;20710;-86
2022/07/14 04:36:44;;;;;;;11.27;5.40;;;19.50;99.90;;;;;;5037520;28;20705;-85
2022/07/14 04:39:09;;;;;;;7.07;3.80;;;19.50;99.90;;;;;;5017461;28;20419;-85
2022/07/14 04:41:36;;;;;;;10.80;4.67;;;19.50;99.90;;;;;;5035119;28;20175;-85
2022/07/14 04:44:02;;;;;;;8.37;4.10;;;19.50;99.90;;;;;;5035086;28;20263;-86
2022/07/14 04:46:28;;;;;;;7.40;5.00;;;19.50;99.90;;;;;;5034658;28;20948;-86
2022/07/14 04:54:21;;;;;;;8.40;5.30;;;19.50;99.90;;;;;;5034678;28;20894;-84
2022/07/14 04:56:47;;;;;;;10.43;4.40;;;19.50;99.90;;;;;;5016209;28;20506;-85
2022/07/14 04:59:12;;;;;;;11.20;5.27;;;19.60;99.90;;;;;;5015863;28;20270;-85
2022/07/14 05:01:38;;;;;;;8.40;4.80;;;19.60;99.90;;;;;;5016986;28;20258;-85
2022/07/14 05:04:03;;;;;;;13.07;5.10;;;19.60;99.90;;;;;;5016848;28;20187;-85
2022/07/14 05:06:29;;;;;;;8.50;4.13;;;19.60;99.90;;;;;;5016479;28;20668;-86
2022/07/14 05:08:55;;;;;;;9.03;4.83;;;19.60;99.90;;;;;;5016504;28;20237;-85
2022/07/14 05:11:20;;;;;;;10.37;5.10;;;19.70;99.90;;;;;;5034162;28;20192;-85
2022/07/14 05:13:46;;;;;;;11.80;5.10;;;19.70;99.90;;;;;;5017315;28;20212;-86
2022/07/14 05:16:11;;;;;;;11.07;5.20;;;19.70;99.90;;;;;;5035094;28;20176;-85
2022/07/14 05:18:37;;;;;;;7.03;4.10;;;19.70;99.90;;;;;;5034528;28;20184;-85
2022/07/14 05:21:03;;;;;;;8.67;4.03;;;19.80;99.90;;;;;;5016725;28;20212;-85
2022/07/14 05:23:28;;;;;;;13.63;4.83;;;19.80;99.90;;;;;;5016812;28;20644;-85
2022/07/14 05:25:54;;;;;;;8.10;4.17;;;19.90;99.90;;;;;;5016435;28;20192;-85
2022/07/14 05:28:20;;;;;;;10.77;4.17;;;19.90;99.90;;;;;;5016388;28;20275;-84
2022/07/14 05:30:45;;;;;;;10.80;5.17;;;20.00;99.90;;;;;;5034241;28;20226;-85
2022/07/14 05:33:11;;;;;;;10.43;4.20;;;20.10;99.90;;;;;;5016207;28;20679;-84
2022/07/14 05:35:37;;;;;;;17.33;5.37;;;20.10;99.90;;;;;;5034193;28;20172;-84
2022/07/14 05:38:03;;;;;;;8.00;4.20;;;20.20;99.90;;;;;;5033934;28;20668;-84
2022/07/14 05:40:28;;;;;;;14.50;5.80;;;20.30;99.90;;;;;;5016154;28;20236;-84
2022/07/14 05:42:54;;;;;;;10.87;4.80;;;20.30;99.90;;;;;;5016158;28;20907;-85
2022/07/14 05:45:19;;;;;;;9.90;4.90;;;20.50;99.90;;;;;;5016302;28;20270;-85
2022/07/14 05:47:45;;;;;;;10.83;5.40;;;20.50;99.90;;;;;;5016052;28;20648;-85
2022/07/14 05:50:10;;;;;;;10.23;4.47;;;20.40;99.90;;;;;;5034307;28;20232;-85
2022/07/14 05:52:36;;;;;;;9.63;4.73;;;20.50;99.90;;;;;;5034213;28;20172;-85
2022/07/14 05:55:02;;;;;;;11.27;5.33;;;20.50;99.90;;;;;;5016114;28;20246;-85
2022/07/14 05:57:27;;;;;;;17.63;7.73;;;20.50;99.90;;;;;;5033370;28;20187;-85
2022/07/14 05:59:53;;;;;;;10.83;5.13;;;20.60;99.90;;;;;;5033672;28;20204;-86
2022/07/14 06:02:19;;;;;;;13.03;5.37;;;20.60;99.90;;;;;;5015836;28;20176;-85
2022/07/14 06:04:45;;;;;;;12.03;5.17;;;20.50;99.90;;;;;;5015964;28;20430;-84
2022/07/14 06:07:10;;;;;;;9.37;4.77;;;20.70;99.90;;;;;;5033059;28;20184;-85
2022/07/14 06:09:37;;;;;;;11.13;5.60;;;20.60;99.90;;;;;;5033685;28;20204;-85
2022/07/14 06:12:07;;;;;;;10.80;5.13;;;20.70;99.90;;;;;;5033476;28;20184;-84
2022/07/14 06:14:33;;;;;;;10.03;4.30;;;20.70;99.90;;;;;;5015754;28;20490;-85
2022/07/14 06:16:59;;;;;;;9.50;5.80;;;20.80;99.90;;;;;;5015159;28;20487;-85
2022/07/14 06:19:24;;;;;;;9.27;5.30;;;20.80;99.90;;;;;;5015353;28;20683;-85
2022/07/14 06:21:50;;;;;;;8.30;4.50;;;20.90;99.90;;;;;;5015418;28;20418;-85
2022/07/14 06:24:15;;;;;;;15.43;4.97;;;21.00;99.90;;;;;;5033159;28;20654;-86
2022/07/14 06:26:42;;;;;;;12.40;5.20;;;21.10;99.90;;;;;;5015270;28;20192;-84
2022/07/14 06:29:08;;;;;;;14.83;6.83;;;21.10;99.90;;;;;;5032941;28;20582;-85
2022/07/14 06:31:36;;;;;;;11.17;4.63;;;21.00;99.90;;;;;;5015332;28;20449;-85
2022/07/14 06:34:04;;;;;;;13.40;5.47;;;21.10;99.90;;;;;;5015074;28;20841;-85
2022/07/14 06:36:30;;;;;;;10.67;5.53;;;21.00;99.90;;;;;;5014510;28;20422;-85
2022/07/14 06:38:57;;;;;;;7.90;4.50;;;21.00;99.90;;;;;;5014976;28;20422;-85
2022/07/14 06:41:23;;;;;;;10.00;5.33;;;21.10;99.90;;;;;;5032913;28;20788;-85
2022/07/14 06:43:49;;;;;;;8.77;5.90;;;21.10;99.90;;;;;;5014918;28;20434;-84
2022/07/14 06:46:16;;;;;;;8.80;4.57;;;21.10;99.90;;;;;;5014721;28;20431;-85
2022/07/14 06:48:42;;;;;;;11.20;5.47;;;21.10;99.90;;;;;;5015023;28;20259;-85
2022/07/14 06:51:08;;;;;;;14.90;5.20;;;21.10;99.90;;;;;;5014552;28;20446;-84
2022/07/14 06:53:34;;;;;;;10.93;5.60;;;21.30;99.90;;;;;;5014747;28;20477;-84
2022/07/14 06:55:59;;;;;;;10.97;4.57;;;21.50;99.90;;;;;;5032332;28;20419;-84
2022/07/14 06:58:25;;;;;;;9.73;4.97;;;21.40;99.90;;;;;;5014547;28;20261;-85
2022/07/14 07:00:50;;;;;;;10.10;5.10;;;21.50;99.90;;;;;;5032493;28;20204;-84
2022/07/14 07:03:16;;;;;;;12.20;5.80;;;21.60;99.90;;;;;;5014564;28;20191;-85
2022/07/14 07:08:28;;;;;;;9.53;5.10;;;21.90;99.90;;;;;;5032349;28;20568;-84
2022/07/14 07:10:55;;;;;;;14.37;5.00;;;21.90;99.90;;;;;;5032324;28;20454;-85
2022/07/14 07:13:21;;;;;;;8.80;4.47;;;22.10;99.90;;;;;;5014448;28;20550;-84
2022/07/14 07:15:47;;;;;;;18.80;5.27;;;22.20;99.90;;;;;;5014630;28;20466;-84
2022/07/14 07:18:12;;;;;;;12.67;4.13;;;22.30;99.90;;;;;;5032139;28;20631;-85
2022/07/14 07:20:38;;;;;;;9.10;4.10;;;22.30;99.90;;;;;;5031337;28;20679;-85
2022/07/14 07:23:05;;;;;;;10.73;4.67;;;22.50;99.90;;;;;;5014323;28;20215;-84
2022/07/14 07:25:31;;;;;;;13.43;5.30;;;22.60;99.90;;;;;;5032029;28;20255;-86
2022/07/14 07:27:58;;;;;;;9.53;4.17;;;22.70;99.90;;;;;;5031861;28;20833;-85
2022/07/14 07:30:23;;;;;;;13.03;4.90;;;22.70;99.90;;;;;;5032141;28;20431;-83
2022/07/14 07:32:50;;;;;;;9.97;4.87;;;22.60;99.90;;;;;;5031848;28;20426;-85
2022/07/14 07:35:16;;;;;;;20.67;5.07;;;22.70;99.90;;;;;;5014155;28;20180;-84
2022/07/14 07:37:41;;;;;;;11.10;5.97;;;22.70;99.90;;;;;;5014086;28;20513;-86
2022/07/14 07:40:07;;;;;;;12.87;4.97;;;22.80;99.90;;;;;;5014147;28;20223;-84
2022/07/14 07:42:33;;;;;;;13.20;5.67;;;22.90;99.90;;;;;;5014466;28;20177;-85
2022/07/14 07:45:00;;;;;;;10.27;4.77;;;23.00;99.90;;;;;;5031898;28;20417;-84
2022/07/14 07:47:26;;;;;;;12.90;4.70;;;23.10;99.90;;;;;;5031481;28;20177;-85
2022/07/14 07:49:52;;;;;;;13.97;5.07;;;23.40;99.90;;;;;;5016738;28;20826;-86
2022/07/14 07:52:18;;;;;;;11.00;4.40;;;23.60;99.90;;;;;;5037706;28;20407;-84
2022/07/14 07:54:44;;;;;;;12.07;5.43;;;23.50;99.90;;;;;;5019577;28;20208;-86
2022/07/14 07:57:14;;;;;;;14.73;4.60;;;23.80;99.90;;;;;;5018126;28;20172;-85
2022/07/14 07:59:40;;;;;;;15.63;5.20;;;24.20;99.90;;;;;;5019171;28;20471;-86
2022/07/14 08:02:05;;;;;;;12.33;4.63;;;24.20;99.90;;;;;;5017986;28;20419;-86
2022/07/14 08:04:32;;;;;;;12.07;4.40;;;24.10;99.90;;;;;;5036777;28;20426;-85
2022/07/14 08:06:58;;;;;;;10.23;4.23;;;24.00;99.90;;;;;;5018703;28;20183;-86
2022/07/14 08:09:23;;;;;;;8.20;3.87;;;24.10;99.90;;;;;;5017127;28;20451;-85
2022/07/14 08:11:49;;;;;;;12.97;5.10;;;24.20;99.90;;;;;;5037436;28;20184;-85
2022/07/14 08:16:59;;;;;;;8.80;3.87;;;25.30;99.90;;;;;;5034193;28;20199;-85
2022/07/14 08:19:25;;;;;;;9.77;3.63;;;26.20;99.90;;;;;;5017580;28;20956;-86
2022/07/14 08:21:50;;;;;;;11.73;4.37;;;27.30;99.90;;;;;;5018236;28;20419;-85
2022/07/14 08:24:18;;;;;;;9.50;4.50;;;27.30;99.90;;;;;;5018537;28;20180;-85
2022/07/14 08:26:47;;;;;;;7.50;4.00;;;26.80;99.90;;;;;;5017367;28;20184;-85
2022/07/14 08:29:13;;;;;;;7.90;3.60;;;27.60;99.90;;;;;;5017382;28;20423;-86
2022/07/14 08:31:39;;;;;;;8.50;3.37;;;28.30;99.90;;;;;;5017326;28;20423;-86
2022/07/14 08:34:04;;;;;;;9.57;3.70;;;28.80;99.90;;;;;;5020147;28;20821;-86
2022/07/14 08:36:30;;;;;;;10.17;3.63;;;29.40;99.90;;;;;;5019728;28;20250;-85
2022/07/14 08:38:56;;;;;;;5.00;2.80;;;29.50;99.90;;;;;;5020551;28;20176;-85
2022/07/14 08:41:22;;;;;;;8.03;3.43;;;29.40;99.90;;;;;;5020700;28;20177;-85
2022/07/14 08:43:49;;;;;;;8.57;3.10;;;29.90;98.40;;;;;;5020520;28;20427;-85
2022/07/14 08:46:15;;;;;;;8.83;4.13;;;30.90;96.20;;;;;;5019383;28;20180;-85
2022/07/14 08:48:41;;;;;;;7.63;3.00;;;31.10;92.80;;;;;;5038370;28;20825;-85
2022/07/14 08:51:08;;;;;;;6.63;2.67;;;30.40;93.50;;;;;;5019903;28;20196;-87
2022/07/14 08:53:34;;;;;;;8.60;3.43;;;29.70;93.10;;;;;;5019797;28;20200;-86
2022/07/14 08:56:00;;;;;;;9.60;3.00;;;29.40;94.10;;;;;;5037104;28;20407;-85
2022/07/14 08:58:26;;;;;;;7.43;2.90;;;29.20;90.40;;;;;;5036824;28;20961;-86
2022/07/14 09:00:52;;;;;;;9.47;2.77;;;28.90;91.30;;;;;;5019347;28;20192;-85
2022/07/14 09:03:18;;;;;;;8.80;3.00;;;28.60;91.70;;;;;;5036474;28;20181;-85
2022/07/14 09:05:45;;;;;;;8.20;3.73;;;28.50;92.40;;;;;;5018148;28;20479;-85
2022/07/14 09:08:12;;;;;;;10.07;3.80;;;28.30;92.70;;;;;;5018811;28;20188;-87
2022/07/14 09:10:39;;;;;;;8.97;2.90;;;28.20;93.30;;;;;;5019491;28;20869;-85
2022/07/14 09:13:17;;;;;;;10.77;2.77;;;28.10;94.10;;;;;;5016896;28;20523;-84
2022/07/14 09:15:46;;;;;;;9.60;3.83;;;28.30;94.70;;;;;;5016521;28;20430;-84
2022/07/14 09:18:26;;;;;;;9.90;2.83;;;28.70;94.70;;;;;;5016704;28;20415;-85
2022/07/14 09:20:54;;;;;;;6.93;2.73;;;29.00;92.50;;;;;;5034895;28;20876;-85
2022/07/14 09:23:31;;;;;;;4.60;2.50;;;29.10;92.10;;;;;;5034489;28;20415;-85
2022/07/14 09:26:18;;;;;;;7.97;3.63;;;29.40;88.70;;;;;;5016224;28;20506;-84
2022/07/14 09:28:49;;;;;;;4.67;2.70;;;29.50;90.30;;;;;;5016516;28;20462;-84
2022/07/14 09:31:25;;;;;;;7.10;2.87;;;29.30;91.10;;;;;;5016267;28;20450;-85
2022/07/14 09:33:52;;;;;;;6.37;2.63;;;29.40;92.30;;;;;;5034052;28;21015;-85
2022/07/14 09:36:44;;;;;;;8.63;3.50;;;29.90;93.00;;;;;;5015877;28;20506;-85
2022/07/14 09:39:12;;;;;;;7.27;3.17;;;29.60;87.60;;;;;;5013250;28;20530;-86
2022/07/14 09:41:55;;;;;;;10.23;3.50;;;29.90;87.70;;;;;;5033984;28;20407;-85
2022/07/14 09:44:22;;;;;;;8.87;3.03;;;30.30;87.90;;;;;;5033184;28;20510;-85
2022/07/14 09:46:54;;;;;;;7.33;2.80;;;30.80;84.40;;;;;;5033452;28;20419;-85
2022/07/14 09:49:21;;;;;;;8.43;2.83;;;32.10;81.10;;;;;;5015975;28;20477;-85
2022/07/14 09:52:13;;;;;;;7.20;2.53;;;33.80;75.60;;;;;;5033711;28;20415;-85
2022/07/14 09:54:49;;;;;;;7.60;2.87;;;34.30;60.80;;;;;;5030937;28;21173;-85
2022/07/14 09:57:14;;;;;;;8.93;2.60;;;34.00;52.30;;;;;;5015596;28;20424;-85
2022/07/14 09:59:49;;;;;;;7.13;3.17;;;33.70;49.80;;;;;;5016047;28;20443;-85
2022/07/14 10:02:29;;;;;;;9.30;3.60;;;33.20;47.70;;;;;;5016337;28;20638;-85
2022/07/14 10:05:02;;;;;;;6.43;2.57;;;32.90;46.20;;;;;;5016033;28;20423;-85
2022/07/14 10:07:33;;;;;;;4.53;1.83;;;31.90;47.50;;;;;;5015371;28;20429;-85
2022/07/14 10:10:09;;;;;;;7.43;2.37;;;31.50;50.70;;;;;;5015495;28;21001;-85
2022/07/14 10:12:36;;;;;;;10.13;2.27;;;31.50;50.20;;;;;;5015600;28;20430;-85
2022/07/14 10:15:05;;;;;;;4.30;2.00;;;31.90;47.50;;;;;;5033353;28;20473;-86
2022/07/14 10:17:34;;;;;;;8.47;2.17;;;31.70;46.60;;;;;;5015431;28;20419;-85
2022/07/14 10:20:01;;;;;;;6.80;2.50;;;31.50;46.70;;;;;;5016469;28;20549;-85
2022/07/14 10:22:29;;;;;;;4.23;1.80;;;31.50;48.80;;;;;;5062491;23;20596;-80
2022/07/14 10:24:54;;;;;;;7.87;2.87;;;31.30;48.90;;;;;;5035497;28;20423;-81
2022/07/14 10:27:20;;;;;;;8.30;2.63;;;31.10;48.40;;;;;;5035530;28;20442;-81
2022/07/14 10:29:51;;;;;;;9.70;2.73;;;31.40;47.50;;;;;;5052212;28;20180;-81
2022/07/14 10:32:33;;;;;;;4.80;2.20;;;31.70;49.00;;;;;;5051772;28;20180;-81
2022/07/14 10:35:05;;;;;;;7.50;2.63;;;31.90;48.50;;;;;;5051853;28;20476;-81
2022/07/14 10:37:34;;;;;;;9.17;3.13;;;31.90;48.50;;;;;;5051739;28;20492;-82
2022/07/14 10:40:18;;;;;;;9.50;2.60;;;32.60;47.20;;;;;;5051942;28;20433;-79
2022/07/14 10:43:05;;;;;;;9.27;2.67;;;33.70;47.30;;;;;;5052323;28;20414;-79
2022/07/14 10:45:32;;;;;;;9.50;2.50;;;34.10;46.10;;;;;;5035012;28;20425;-79
2022/07/14 10:47:57;;;;;;;6.90;2.50;;;34.00;44.10;;;;;;5051533;28;20469;-80
2022/07/14 10:50:28;;;;;;;7.27;2.73;;;33.70;45.00;;;;;;5051551;28;20987;-79
2022/07/14 10:52:54;;;;;;;6.03;2.10;;;33.50;44.70;;;;;;5051836;28;20186;-80
2022/07/14 10:55:27;;;;;;;5.33;2.70;;;32.40;44.60;;;;;;5051541;28;20485;-80
2022/07/14 10:57:59;;;;;;;6.93;2.50;;;31.40;43.80;;;;;;5051253;28;20242;-80
2022/07/14 11:00:43;;;;;;;6.27;2.50;;;30.90;45.60;;;;;;5051671;28;20418;-79
2022/07/14 11:03:28;;;;;;;8.17;2.50;;;30.40;46.10;;;;;;5051710;28;20433;-79
2022/07/14 11:06:08;;;;;;;6.77;2.40;;;29.90;47.10;;;;;;5051726;28;20426;-80
2022/07/14 11:08:38;;;;;;;9.27;2.60;;;29.60;46.50;;;;;;5051023;28;20469;-79
2022/07/14 11:11:08;;;;;;;6.07;2.40;;;29.80;47.20;;;;;;5051436;28;20433;-79
2022/07/14 11:13:58;;;;;;;7.77;2.70;;;30.00;47.50;;;;;;5051013;28;20472;-79
2022/07/14 11:16:55;;;;;;;5.50;2.10;;;30.40;46.70;;;;;;5051005;28;20418;-79
2022/07/14 11:19:30;;;;;;;4.40;2.47;;;30.80;45.70;;;;;;5035031;28;20449;-79
2022/07/14 11:22:19;;;;;;;5.23;1.83;;;31.10;47.30;;;;;;5051051;28;20444;-80
2022/07/14 11:24:57;;;;;;;6.33;2.67;;;31.10;44.10;;;;;;5051397;28;20444;-79
2022/07/14 11:27:47;;;;;;;6.43;2.83;;;30.50;43.80;;;;;;5051122;28;20445;-79
2022/07/14 11:30:17;;;;;;;6.53;1.90;;;30.50;44.80;;;;;;5034464;28;20437;-79
2022/07/14 11:32:44;;;;;;;5.27;2.70;;;29.90;44.20;;;;;;5051155;28;20433;-80
2022/07/14 11:38:20;;;;;;;5.50;2.90;;;29.00;46.00;;;;;;5052569;28;20433;-79
2022/07/14 11:40:53;;;;;;;4.53;2.13;;;28.40;46.70;;;;;;5050705;28;20457;-79
2022/07/14 11:43:31;;;;;;;5.30;2.27;;;28.40;46.80;;;;;;5051178;28;20484;-79
2022/07/14 11:46:03;;;;;;;8.30;2.60;;;28.30;49.50;;;;;;5051029;28;20461;-80
2022/07/14 11:48:31;;;;;;;5.77;2.20;;;28.30;49.50;;;;;;5050615;28;20445;-80
2022/07/14 11:51:03;;;;;;;5.47;2.60;;;28.20;48.70;;;;;;5050673;28;20422;-80
2022/07/14 11:53:29;;;;;;;5.37;2.20;;;28.00;48.70;;;;;;5050854;28;20547;-80
2022/07/14 11:55:55;;;;;;;7.33;2.20;;;27.90;49.10;;;;;;5050523;28;20480;-80
2022/07/14 11:58:24;;;;;;;6.60;2.20;;;27.90;49.90;;;;;;5050503;28;20446;-79
2022/07/14 12:01:01;;;;;;;4.90;2.27;;;28.10;52.50;;;;;;5050679;28;20426;-79
2022/07/14 12:03:27;;;;;;;7.47;2.60;;;28.40;50.70;;;;;;5050885;28;20510;-79
2022/07/14 12:05:56;;;;;;;5.23;2.27;;;28.80;50.30;;;;;;5034286;28;20800;-79
2022/07/14 12:08:28;;;;;;;4.37;2.30;;;29.00;51.20;;;;;;5053879;28;20972;-80
2022/07/14 12:11:00;;;;;;;5.60;2.30;;;29.00;51.50;;;;;;5055128;28;20524;-79
2022/07/14 12:13:25;;;;;;;5.60;2.37;;;28.90;50.30;;;;;;5054849;28;20462;-79
2022/07/14 12:15:51;;;;;;;5.40;2.57;;;28.60;49.80;;;;;;5055104;28;20449;-79
2022/07/14 12:18:17;;;;;;;4.70;2.90;;;28.30;50.70;;;;;;5054210;28;20249;-79
2022/07/14 12:20:45;;;;;;;6.17;2.47;;;28.30;52.10;;;;;;5054633;28;20183;-79
2022/07/14 12:23:13;;;;;;;4.70;2.10;;;28.60;52.50;;;;;;5054403;28;20302;-80
2022/07/14 12:25:46;;;;;;;5.93;2.50;;;28.70;52.40;;;;;;5054617;28;20433;-80
2022/07/14 12:28:18;;;;;;;6.03;2.67;;;28.80;52.80;;;;;;5054540;28;20530;-80
2022/07/14 12:30:47;;;;;;;6.70;2.20;;;28.30;50.20;;;;;;5054451;28;20426;-79
2022/07/14 12:33:21;;;;;;;4.10;2.40;;;28.40;52.00;;;;;;5054158;28;20512;-79
2022/07/14 12:35:50;;;;;;;4.70;2.67;;;28.70;52.80;;;;;;5054498;28;20513;-80
2022/07/14 12:38:19;;;;;;;5.90;2.40;;;28.80;52.40;;;;;;5054639;28;20505;-79
2022/07/14 12:40:55;;;;;;;3.97;2.60;;;28.30;51.60;;;;;;5053902;28;20472;-80
2022/07/14 12:43:21;;;;;;;6.10;2.23;;;28.20;50.70;;;;;;5053619;28;20433;-79
2022/07/14 12:45:59;;;;;;;4.13;2.37;;;28.30;51.00;;;;;;5053896;28;20807;-80
2022/07/14 12:48:25;;;;;;;4.33;2.27;;;28.20;52.20;;;;;;5054854;28;20796;-81
2022/07/14 12:50:51;;;;;;;6.43;2.50;;;28.20;54.00;;;;;;5044146;28;20521;-81
2022/07/14 12:53:17;;;;;;;4.97;2.50;;;28.00;52.90;;;;;;5060613;28;20489;-81
2022/07/14 12:55:46;;;;;;;6.27;3.10;;;28.00;53.10;;;;;;5061570;28;20635;-79
2022/07/14 12:58:14;;;;;;;5.53;2.90;;;27.90;52.10;;;;;;5060694;28;20516;-80
2022/07/14 13:00:45;;;;;;;3.10;1.93;;;28.00;52.30;;;;;;5060173;28;20422;-80
2022/07/14 13:03:13;;;;;;;5.23;2.40;;;28.20;51.90;;;;;;5058424;28;20843;-80